Airfield :
LOGIN :

Register | Disclaimer

   EN    FR    IT 

 










Legend :    VFR   Marginal VFR   IFR   Intensive IFR   Very Intensive IFR
Visi :
Ceiling :
>= 8 km
>= 3000ft
5 to 8 km
1000 to 3000 ft
1500m to 5 km
500 to 1000 ft
800 to 1500m
200 to 500 ft
< 800m
< 200 ft
Symbols :   Thunderstorms  Fog  Heavy snow  Heavy precipitations  Wind > 20 kt
SIGMETs :     Misc.  Thunderstorms  Icing  Turbulence  Mountain Waves  Volcanic Ashes







- Airport Elevation : 408 ft
- IATA code : FKB


EDSB - Karlsruhe Baden Baden

CURRENT METAR :
  • 160720Z 24003KT 210V270 2400 -FZDZ BR BKN003 OVC007 M01/M02 Q1013

EXPIRED METARs :
  • 160650Z 20004KT 3000 -FZDZ BR SCT003 OVC009 M02/M02 Q1012 REFZDZ
  • 160620Z 17003KT 2700 FZDZ BR FEW003 SCT005 OVC009 M02/M02 Q1013
  • 160550Z 00000KT 3300 -FZDZ FEW004 SCT006 OVC013 M02/M03 Q1013
  • 160520Z VRB02KT 3200 -SN FEW004 BKN012 OVC020 M02/M02 Q1013
  • 160450Z VRB02KT 3000 -SN FEW008 OVC013 M02/M03 Q1013

TAF TAF EDSB
Valid from the 16 at 06:00 until the 17 at 06:00 UTC


160500Z 1606/1706 VRB03KT 6000 BKN015
TEMPO 1606/1608 0800 SN BKN008
PROB30
TEMPO 1606/1608 -FZDZ
BECMG 1608/1610 22005KT
PROB30
TEMPO 1608/1611 2000 -FZDZ BKN008
No reported NOTAMs for that airfield.
4 SIGMETs reported for the Langen FIR (EDGG) :
 
Severe icing
EDGG SIGMET 9 VALID 160730/161000 EDZF
EDGG LANGEN FIR SEV ICE FCST NE OF LINE N5215 E00715 - N4830 E00930 FL100/140 MOV NE 10KT NC=
Severe icing with freezing rain
EDGG SIGMET 8 VALID 160705/160900 EDZF
EDGG LANGEN FIR SEV ICE (FZRA) FCST W OF LINE N5215 E00730 - N4750 E00930 SFC/FL080 MOV E NC=
SIGMET 6  cancelation
EDGG SIGMET 7 VALID 160704/160900 EDZF
EDGG LANGEN FIR CNL SIGMET 6 160700/160900=
SIGMET 6  CANCELED :
Severe icing with freezing rain
EDGG SIGMET 6 VALID 160700/160900 EDZF
EDGG LANGEN FIR SEV ICE (FZRA) FCST W OF LINE N5215 E00730 - N4750 E00930 TOP FL080 MOV E NC=



MET'MAP, your aeronautical weather chart ! - Copyright ORBIFLY December 2007 - Disclaimer

ORBIFLY MET'MAP TEAM :

Programming & Development : Alexandra Zaïnal
Concept & Development : Baudouin d'Aumeries
Co-Development & Prog : Marc-Olivier Méhu
Technical & hardware support : Manuel Goepfert

Contact : metmap@orbifly.com




SOURCES & CREDITS :

   NOAA